Terminal Aerodrome Forecast
Issued by NWS

Home | Current Version | Previous Version | Text Only | Print | Product List | Glossary On
Versions: 1 2 3 4 5 6 7 8 9 10 11 12 13 14
000
FTUS43 KAPX 040525
TAFAPN
TAF
KAPN 040525Z 0406/0506 23007KT P6SM VCSH SCT040 OVC080
      WS020/24040KT
      TEMPO 0409/0413 5SM -SHRA OVC035
     FM041500 30009KT P6SM VCSH SCT050 BKN100
     FM041800 32008KT P6SM SCT050
     FM050100 31005KT P6SM SCT250=

USA.gov is the U.S. government's official web portal to all federal, state and local government web resources and services.